Terminal Aerodrome Forecast
Issued by NWS Wilmington, NC

Home | Current Version | Previous Version | Text Only | Print | Product List | Glossary On
Versions: 1 2 3 4 5 6 7 8 9 10 11 12 13 14 15 16 17 18 19 20 21 22 23 24 25 26 27
000
FTUS42 KILM 211123
TAFFLO
TAF
KFLO 211123Z 2112/2212 34010KT P6SM SCT035
     FM211800 27006KT P6SM FEW050
     FM220000 VRB02KT P6SM FEW060 SCT130 SCT250=

USA.gov is the U.S. government's official web portal to all federal, state and local government web resources and services.